sensor_id;sensor_type;location;lat;lon;timestamp;temperature;humidity
67273;DHT22;54190;49.770;9.250;2022-09-16T00:01:50;14.80;99.90
67273;DHT22;54190;49.770;9.250;2022-09-16T00:04:16;14.90;99.90
67273;DHT22;54190;49.770;9.250;2022-09-16T00:06:42;14.80;99.90
67273;DHT22;54190;49.770;9.250;2022-09-16T00:09:08;14.90;99.90
67273;DHT22;54190;49.770;9.250;2022-09-16T00:11:34;14.80;99.90
67273;DHT22;54190;49.770;9.250;2022-09-16T00:14:00;14.80;99.90
67273;DHT22;54190;49.770;9.250;2022-09-16T00:16:27;14.70;99.90
67273;DHT22;54190;49.770;9.250;2022-09-16T00:18:55;14.70;99.90
67273;DHT22;54190;49.770;9.250;2022-09-16T00:21:21;14.70;99.90
67273;DHT22;54190;49.770;9.250;2022-09-16T00:23:47;14.60;99.90
67273;DHT22;54190;49.770;9.250;2022-09-16T00:26:13;14.60;99.90
67273;DHT22;54190;49.770;9.250;2022-09-16T00:28:39;14.60;99.90
67273;DHT22;54190;49.770;9.250;2022-09-16T00:31:04;14.60;99.90
67273;DHT22;54190;49.770;9.250;2022-09-16T00:33:31;14.70;99.90
67273;DHT22;54190;49.770;9.250;2022-09-16T00:36:23;14.70;99.90
67273;DHT22;54190;49.770;9.250;2022-09-16T00:38:50;14.70;99.90
67273;DHT22;54190;49.770;9.250;2022-09-16T00:41:28;14.60;99.90
67273;DHT22;54190;49.770;9.250;2022-09-16T00:44:00;14.60;99.90
67273;DHT22;54190;49.770;9.250;2022-09-16T00:46:40;14.60;99.90
67273;DHT22;54190;49.770;9.250;2022-09-16T00:49:23;14.70;99.90
67273;DHT22;54190;49.770;9.250;2022-09-16T00:51:54;14.70;99.90
67273;DHT22;54190;49.770;9.250;2022-09-16T00:54:22;14.70;99.90
67273;DHT22;54190;49.770;9.250;2022-09-16T00:56:50;14.70;99.90
67273;DHT22;54190;49.770;9.250;2022-09-16T00:59:26;14.70;99.90
67273;DHT22;54190;49.770;9.250;2022-09-16T01:01:54;14.60;99.90
67273;DHT22;54190;49.770;9.250;2022-09-16T01:04:26;14.60;99.90
67273;DHT22;54190;49.770;9.250;2022-09-16T01:06:53;14.60;99.90
67273;DHT22;54190;49.770;9.250;2022-09-16T01:09:21;14.60;99.90
67273;DHT22;54190;49.770;9.250;2022-09-16T01:11:47;14.50;99.90
67273;DHT22;54190;49.770;9.250;2022-09-16T01:14:14;14.50;99.90
67273;DHT22;54190;49.770;9.250;2022-09-16T01:34:17;14.50;99.90
67273;DHT22;54190;49.770;9.250;2022-09-16T01:39:36;14.50;99.90
67273;DHT22;54190;49.770;9.250;2022-09-16T01:45:27;14.40;99.90
67273;DHT22;54190;49.770;9.250;2022-09-16T01:50:52;14.40;99.90
67273;DHT22;54190;49.770;9.250;2022-09-16T02:01:18;14.40;99.90
67273;DHT22;54190;49.770;9.250;2022-09-16T02:03:58;14.40;99.90
67273;DHT22;54190;49.770;9.250;2022-09-16T02:06:26;14.40;99.90
67273;DHT22;54190;49.770;9.250;2022-09-16T02:09:06;14.40;99.90
67273;DHT22;54190;49.770;9.250;2022-09-16T02:11:35;14.40;99.90
67273;DHT22;54190;49.770;9.250;2022-09-16T02:14:07;14.40;99.90
67273;DHT22;54190;49.770;9.250;2022-09-16T02:16:45;14.40;99.90
67273;DHT22;54190;49.770;9.250;2022-09-16T02:19:21;14.40;99.90
67273;DHT22;54190;49.770;9.250;2022-09-16T02:21:50;14.40;99.90
67273;DHT22;54190;49.770;9.250;2022-09-16T02:24:19;14.30;99.90
67273;DHT22;54190;49.770;9.250;2022-09-16T02:26:56;14.40;99.90
67273;DHT22;54190;49.770;9.250;2022-09-16T02:29:26;14.30;99.90
67273;DHT22;54190;49.770;9.250;2022-09-16T02:31:57;14.30;99.90
67273;DHT22;54190;49.770;9.250;2022-09-16T02:34:27;14.20;99.90
67273;DHT22;54190;49.770;9.250;2022-09-16T02:36:56;14.20;99.90
67273;DHT22;54190;49.770;9.250;2022-09-16T02:39:30;14.20;99.90
67273;DHT22;54190;49.770;9.250;2022-09-16T02:41:58;14.20;99.90
67273;DHT22;54190;49.770;9.250;2022-09-16T02:44:24;14.20;99.90
67273;DHT22;54190;49.770;9.250;2022-09-16T02:52:35;14.30;99.90
67273;DHT22;54190;49.770;9.250;2022-09-16T02:55:20;14.30;99.90
67273;DHT22;54190;49.770;9.250;2022-09-16T02:57:49;14.20;99.90
67273;DHT22;54190;49.770;9.250;2022-09-16T03:00:16;14.30;99.90
67273;DHT22;54190;49.770;9.250;2022-09-16T03:02:42;14.30;99.90
67273;DHT22;54190;49.770;9.250;2022-09-16T03:05:08;14.20;99.90
67273;DHT22;54190;49.770;9.250;2022-09-16T03:07:35;14.10;99.90
67273;DHT22;54190;49.770;9.250;2022-09-16T03:10:01;14.10;99.90
67273;DHT22;54190;49.770;9.250;2022-09-16T03:26:49;14.10;99.90
67273;DHT22;54190;49.770;9.250;2022-09-16T03:29:26;14.10;99.90
67273;DHT22;54190;49.770;9.250;2022-09-16T03:32:20;14.10;99.90
67273;DHT22;54190;49.770;9.250;2022-09-16T03:37:36;14.10;99.90
67273;DHT22;54190;49.770;9.250;2022-09-16T03:40:12;14.10;99.90
67273;DHT22;54190;49.770;9.250;2022-09-16T03:42:40;14.10;99.90
67273;DHT22;54190;49.770;9.250;2022-09-16T03:45:12;14.10;99.90
67273;DHT22;54190;49.770;9.250;2022-09-16T03:47:39;14.10;99.90
67273;DHT22;54190;49.770;9.250;2022-09-16T03:50:05;14.10;99.90
67273;DHT22;54190;49.770;9.250;2022-09-16T03:52:31;14.10;99.90
67273;DHT22;54190;49.770;9.250;2022-09-16T03:54:56;14.00;99.90
67273;DHT22;54190;49.770;9.250;2022-09-16T03:57:22;14.00;99.90
67273;DHT22;54190;49.770;9.250;2022-09-16T03:59:48;14.00;99.90
67273;DHT22;54190;49.770;9.250;2022-09-16T04:02:13;13.90;99.90
67273;DHT22;54190;49.770;9.250;2022-09-16T04:04:39;14.00;99.90
67273;DHT22;54190;49.770;9.250;2022-09-16T04:07:06;14.00;99.90
67273;DHT22;54190;49.770;9.250;2022-09-16T04:09:31;14.00;99.90
67273;DHT22;54190;49.770;9.250;2022-09-16T04:11:57;14.00;99.90
67273;DHT22;54190;49.770;9.250;2022-09-16T04:14:23;14.00;99.90
67273;DHT22;54190;49.770;9.250;2022-09-16T04:16:49;14.00;99.90
67273;DHT22;54190;49.770;9.250;2022-09-16T04:19:14;14.00;99.90
67273;DHT22;54190;49.770;9.250;2022-09-16T04:21:41;13.90;99.90
67273;DHT22;54190;49.770;9.250;2022-09-16T04:24:08;13.90;99.90
67273;DHT22;54190;49.770;9.250;2022-09-16T04:26:33;13.90;99.90
67273;DHT22;54190;49.770;9.250;2022-09-16T04:28:59;13.90;99.90
67273;DHT22;54190;49.770;9.250;2022-09-16T04:31:26;13.90;99.90
67273;DHT22;54190;49.770;9.250;2022-09-16T04:33:51;13.80;99.90
67273;DHT22;54190;49.770;9.250;2022-09-16T04:36:18;13.90;99.90
67273;DHT22;54190;49.770;9.250;2022-09-16T04:38:48;13.80;99.90
67273;DHT22;54190;49.770;9.250;2022-09-16T04:41:20;13.80;99.90
67273;DHT22;54190;49.770;9.250;2022-09-16T04:43:50;13.70;99.90
67273;DHT22;54190;49.770;9.250;2022-09-16T04:46:17;13.80;99.90
67273;DHT22;54190;49.770;9.250;2022-09-16T04:48:46;13.70;99.90
67273;DHT22;54190;49.770;9.250;2022-09-16T04:51:12;13.80;99.90
67273;DHT22;54190;49.770;9.250;2022-09-16T04:53:39;13.80;99.90
67273;DHT22;54190;49.770;9.250;2022-09-16T04:56:17;13.80;99.90
67273;DHT22;54190;49.770;9.250;2022-09-16T04:58:48;13.80;99.90
67273;DHT22;54190;49.770;9.250;2022-09-16T05:01:22;13.80;99.90
67273;DHT22;54190;49.770;9.250;2022-09-16T05:03:51;13.80;99.90
67273;DHT22;54190;49.770;9.250;2022-09-16T05:06:22;13.80;99.90
67273;DHT22;54190;49.770;9.250;2022-09-16T05:08:50;13.80;99.90
67273;DHT22;54190;49.770;9.250;2022-09-16T05:11:22;13.80;99.90
67273;DHT22;54190;49.770;9.250;2022-09-16T05:13:48;13.80;99.90
67273;DHT22;54190;49.770;9.250;2022-09-16T05:16:19;13.80;99.90
67273;DHT22;54190;49.770;9.250;2022-09-16T05:18:47;13.80;99.90
67273;DHT22;54190;49.770;9.250;2022-09-16T05:21:16;13.70;99.90
67273;DHT22;54190;49.770;9.250;2022-09-16T05:23:43;13.60;99.90
67273;DHT22;54190;49.770;9.250;2022-09-16T05:26:11;13.60;99.90
67273;DHT22;54190;49.770;9.250;2022-09-16T05:28:37;13.70;99.90
67273;DHT22;54190;49.770;9.250;2022-09-16T05:33:38;13.60;99.90
67273;DHT22;54190;49.770;9.250;2022-09-16T05:36:11;13.70;99.90
67273;DHT22;54190;49.770;9.250;2022-09-16T05:38:37;13.70;99.90
67273;DHT22;54190;49.770;9.250;2022-09-16T05:41:03;13.80;99.90
67273;DHT22;54190;49.770;9.250;2022-09-16T05:43:30;13.80;99.90
67273;DHT22;54190;49.770;9.250;2022-09-16T05:45:56;13.80;99.90
67273;DHT22;54190;49.770;9.250;2022-09-16T05:48:23;13.80;99.90
67273;DHT22;54190;49.770;9.250;2022-09-16T05:50:59;13.90;99.90
67273;DHT22;54190;49.770;9.250;2022-09-16T05:53:27;13.90;99.90
67273;DHT22;54190;49.770;9.250;2022-09-16T05:56:04;13.90;99.90
67273;DHT22;54190;49.770;9.250;2022-09-16T05:58:32;13.90;99.90
67273;DHT22;54190;49.770;9.250;2022-09-16T06:03:28;13.90;99.90
67273;DHT22;54190;49.770;9.250;2022-09-16T06:06:26;13.90;99.90
67273;DHT22;54190;49.770;9.250;2022-09-16T06:08:57;13.90;99.90
67273;DHT22;54190;49.770;9.250;2022-09-16T06:11:25;14.00;99.90
67273;DHT22;54190;49.770;9.250;2022-09-16T06:13:56;14.00;99.90
67273;DHT22;54190;49.770;9.250;2022-09-16T06:16:23;14.00;99.90
67273;DHT22;54190;49.770;9.250;2022-09-16T06:18:53;14.00;99.90
67273;DHT22;54190;49.770;9.250;2022-09-16T06:21:20;14.00;99.90
67273;DHT22;54190;49.770;9.250;2022-09-16T06:23:46;14.10;99.90
67273;DHT22;54190;49.770;9.250;2022-09-16T06:26:17;14.10;99.90
67273;DHT22;54190;49.770;9.250;2022-09-16T06:28:43;14.10;99.90
67273;DHT22;54190;49.770;9.250;2022-09-16T06:33:38;14.20;99.90
67273;DHT22;54190;49.770;9.250;2022-09-16T06:36:06;14.10;99.90
67273;DHT22;54190;49.770;9.250;2022-09-16T06:38:33;14.10;99.90
67273;DHT22;54190;49.770;9.250;2022-09-16T06:41:00;14.10;99.90
67273;DHT22;54190;49.770;9.250;2022-09-16T06:43:26;14.10;99.90
67273;DHT22;54190;49.770;9.250;2022-09-16T06:46:00;14.10;99.90
67273;DHT22;54190;49.770;9.250;2022-09-16T06:48:27;14.10;99.90
67273;DHT22;54190;49.770;9.250;2022-09-16T06:50:58;14.10;99.90
67273;DHT22;54190;49.770;9.250;2022-09-16T06:53:24;14.10;99.90
67273;DHT22;54190;49.770;9.250;2022-09-16T06:55:51;14.10;99.90
67273;DHT22;54190;49.770;9.250;2022-09-16T06:58:16;14.00;99.90
67273;DHT22;54190;49.770;9.250;2022-09-16T07:00:42;14.00;99.90
67273;DHT22;54190;49.770;9.250;2022-09-16T07:03:08;13.90;99.90
67273;DHT22;54190;49.770;9.250;2022-09-16T07:05:39;14.00;99.90
67273;DHT22;54190;49.770;9.250;2022-09-16T07:08:04;14.00;99.90
67273;DHT22;54190;49.770;9.250;2022-09-16T07:10:30;14.00;99.90
67273;DHT22;54190;49.770;9.250;2022-09-16T07:12:56;13.90;99.90
67273;DHT22;54190;49.770;9.250;2022-09-16T07:15:22;13.90;99.90
67273;DHT22;54190;49.770;9.250;2022-09-16T07:17:53;13.90;99.90
67273;DHT22;54190;49.770;9.250;2022-09-16T07:20:19;13.90;99.90
67273;DHT22;54190;49.770;9.250;2022-09-16T07:22:45;14.00;99.90
67273;DHT22;54190;49.770;9.250;2022-09-16T07:25:15;14.00;99.90
67273;DHT22;54190;49.770;9.250;2022-09-16T07:27:41;14.00;99.90
67273;DHT22;54190;49.770;9.250;2022-09-16T07:30:07;14.00;99.90
67273;DHT22;54190;49.770;9.250;2022-09-16T07:32:33;14.00;99.90
67273;DHT22;54190;49.770;9.250;2022-09-16T07:34:59;14.00;99.90
67273;DHT22;54190;49.770;9.250;2022-09-16T07:37:24;14.10;99.90
67273;DHT22;54190;49.770;9.250;2022-09-16T07:39:50;14.10;99.90
67273;DHT22;54190;49.770;9.250;2022-09-16T07:42:16;14.10;99.90
67273;DHT22;54190;49.770;9.250;2022-09-16T07:44:42;14.10;99.90
67273;DHT22;54190;49.770;9.250;2022-09-16T07:47:07;14.10;99.90
67273;DHT22;54190;49.770;9.250;2022-09-16T07:49:33;14.10;99.90
67273;DHT22;54190;49.770;9.250;2022-09-16T07:51:59;14.20;99.90
67273;DHT22;54190;49.770;9.250;2022-09-16T07:54:25;14.30;99.90
67273;DHT22;54190;49.770;9.250;2022-09-16T07:56:50;14.30;99.90
67273;DHT22;54190;49.770;9.250;2022-09-16T07:59:17;14.30;99.90
67273;DHT22;54190;49.770;9.250;2022-09-16T08:01:43;14.30;99.90
67273;DHT22;54190;49.770;9.250;2022-09-16T08:04:09;14.30;99.90
67273;DHT22;54190;49.770;9.250;2022-09-16T08:06:38;14.30;99.90
67273;DHT22;54190;49.770;9.250;2022-09-16T08:09:05;14.30;99.90
67273;DHT22;54190;49.770;9.250;2022-09-16T08:11:30;14.30;99.90
67273;DHT22;54190;49.770;9.250;2022-09-16T08:13:59;14.40;99.90
67273;DHT22;54190;49.770;9.250;2022-09-16T08:16:25;14.50;99.90
67273;DHT22;54190;49.770;9.250;2022-09-16T08:18:53;14.60;99.90
67273;DHT22;54190;49.770;9.250;2022-09-16T08:21:22;14.60;99.90
67273;DHT22;54190;49.770;9.250;2022-09-16T08:23:49;14.60;99.90
67273;DHT22;54190;49.770;9.250;2022-09-16T08:26:16;14.70;99.90
67273;DHT22;54190;49.770;9.250;2022-09-16T08:28:43;14.80;99.90
67273;DHT22;54190;49.770;9.250;2022-09-16T08:31:10;14.80;99.90
67273;DHT22;54190;49.770;9.250;2022-09-16T08:33:38;14.90;99.90
67273;DHT22;54190;49.770;9.250;2022-09-16T08:38:40;14.90;99.90
67273;DHT22;54190;49.770;9.250;2022-09-16T08:44:17;15.00;99.90
67273;DHT22;54190;49.770;9.250;2022-09-16T08:47:00;15.00;99.90
67273;DHT22;54190;49.770;9.250;2022-09-16T08:52:01;15.00;99.90
67273;DHT22;54190;49.770;9.250;2022-09-16T08:54:36;15.00;99.90
67273;DHT22;54190;49.770;9.250;2022-09-16T08:57:04;15.10;99.90
67273;DHT22;54190;49.770;9.250;2022-09-16T08:59:38;15.10;99.90
67273;DHT22;54190;49.770;9.250;2022-09-16T09:02:33;15.20;99.90
67273;DHT22;54190;49.770;9.250;2022-09-16T09:05:01;15.30;99.90
67273;DHT22;54190;49.770;9.250;2022-09-16T09:07:52;15.30;99.90
67273;DHT22;54190;49.770;9.250;2022-09-16T09:10:24;15.20;99.90
67273;DHT22;54190;49.770;9.250;2022-09-16T09:13:11;15.30;99.90
67273;DHT22;54190;49.770;9.250;2022-09-16T09:18:56;15.30;99.90
67273;DHT22;54190;49.770;9.250;2022-09-16T09:21:45;15.30;99.90
67273;DHT22;54190;49.770;9.250;2022-09-16T09:27:26;15.50;99.90
67273;DHT22;54190;49.770;9.250;2022-09-16T09:35:35;15.30;99.50
67273;DHT22;54190;49.770;9.250;2022-09-16T09:41:14;15.30;99.30
67273;DHT22;54190;49.770;9.250;2022-09-16T09:43:51;15.30;99.50
67273;DHT22;54190;49.770;9.250;2022-09-16T09:46:37;15.40;99.90
67273;DHT22;54190;49.770;9.250;2022-09-16T09:49:24;15.60;99.90
67273;DHT22;54190;49.770;9.250;2022-09-16T09:54:38;16.00;98.30
67273;DHT22;54190;49.770;9.250;2022-09-16T09:57:32;16.00;97.80
67273;DHT22;54190;49.770;9.250;2022-09-16T10:00:15;16.00;95.60
67273;DHT22;54190;49.770;9.250;2022-09-16T10:02:43;16.00;96.30
67273;DHT22;54190;49.770;9.250;2022-09-16T10:05:27;16.00;96.50
67273;DHT22;54190;49.770;9.250;2022-09-16T10:08:16;16.00;95.90
67273;DHT22;54190;49.770;9.250;2022-09-16T10:10:49;15.90;97.20
67273;DHT22;54190;49.770;9.250;2022-09-16T10:13:16;16.00;97.00
67273;DHT22;54190;49.770;9.250;2022-09-16T10:15:42;15.90;96.70
67273;DHT22;54190;49.770;9.250;2022-09-16T10:18:20;15.80;96.20
67273;DHT22;54190;49.770;9.250;2022-09-16T10:23:34;15.80;97.00
67273;DHT22;54190;49.770;9.250;2022-09-16T10:26:05;15.80;97.10
67273;DHT22;54190;49.770;9.250;2022-09-16T10:28:31;15.80;97.60
67273;DHT22;54190;49.770;9.250;2022-09-16T10:30:58;15.90;97.50
67273;DHT22;54190;49.770;9.250;2022-09-16T10:33:34;15.90;97.80
67273;DHT22;54190;49.770;9.250;2022-09-16T10:36:09;15.90;98.60
67273;DHT22;54190;49.770;9.250;2022-09-16T10:38:57;15.90;97.80
67273;DHT22;54190;49.770;9.250;2022-09-16T10:41:26;16.10;98.80
67273;DHT22;54190;49.770;9.250;2022-09-16T10:44:01;16.30;99.00
67273;DHT22;54190;49.770;9.250;2022-09-16T10:46:28;16.30;97.60
67273;DHT22;54190;49.770;9.250;2022-09-16T10:48:59;16.50;97.60
67273;DHT22;54190;49.770;9.250;2022-09-16T10:51:30;16.60;95.50
67273;DHT22;54190;49.770;9.250;2022-09-16T10:54:02;16.60;95.40
67273;DHT22;54190;49.770;9.250;2022-09-16T10:56:45;16.80;95.00
67273;DHT22;54190;49.770;9.250;2022-09-16T10:59:12;16.80;95.60
67273;DHT22;54190;49.770;9.250;2022-09-16T11:06:54;17.00;95.30
67273;DHT22;54190;49.770;9.250;2022-09-16T11:23:38;17.20;95.90
67273;DHT22;54190;49.770;9.250;2022-09-16T11:38:23;17.00;93.90
67273;DHT22;54190;49.770;9.250;2022-09-16T11:44:15;16.80;94.80
67273;DHT22;54190;49.770;9.250;2022-09-16T11:46:59;16.70;95.20
67273;DHT22;54190;49.770;9.250;2022-09-16T11:57:41;16.90;96.70
67273;DHT22;54190;49.770;9.250;2022-09-16T12:00:11;17.00;95.50
67273;DHT22;54190;49.770;9.250;2022-09-16T12:03:02;17.20;95.40
67273;DHT22;54190;49.770;9.250;2022-09-16T12:05:51;17.40;95.60
67273;DHT22;54190;49.770;9.250;2022-09-16T12:08:21;17.50;93.90
67273;DHT22;54190;49.770;9.250;2022-09-16T12:10:56;17.70;94.90
67273;DHT22;54190;49.770;9.250;2022-09-16T12:13:51;17.90;94.70
67273;DHT22;54190;49.770;9.250;2022-09-16T12:19:05;18.20;92.90
67273;DHT22;54190;49.770;9.250;2022-09-16T12:21:42;18.20;92.70
67273;DHT22;54190;49.770;9.250;2022-09-16T12:24:30;18.20;92.10
67273;DHT22;54190;49.770;9.250;2022-09-16T12:29:50;18.10;91.60
67273;DHT22;54190;49.770;9.250;2022-09-16T12:32:40;18.10;90.60
67273;DHT22;54190;49.770;9.250;2022-09-16T12:35:25;18.20;88.60
67273;DHT22;54190;49.770;9.250;2022-09-16T12:37:52;18.00;88.20
67273;DHT22;54190;49.770;9.250;2022-09-16T12:40:23;17.80;86.90
67273;DHT22;54190;49.770;9.250;2022-09-16T12:48:39;17.90;91.10
67273;DHT22;54190;49.770;9.250;2022-09-16T12:51:36;18.20;90.50
67273;DHT22;54190;49.770;9.250;2022-09-16T12:54:48;18.20;86.00
67273;DHT22;54190;49.770;9.250;2022-09-16T13:03:05;17.50;90.20
67273;DHT22;54190;49.770;9.250;2022-09-16T13:05:34;17.40;90.60
67273;DHT22;54190;49.770;9.250;2022-09-16T13:08:21;17.40;91.00
67273;DHT22;54190;49.770;9.250;2022-09-16T13:10:58;17.30;90.80
67273;DHT22;54190;49.770;9.250;2022-09-16T13:13:37;17.30;91.30
67273;DHT22;54190;49.770;9.250;2022-09-16T13:16:05;17.20;91.30
67273;DHT22;54190;49.770;9.250;2022-09-16T13:18:41;17.20;91.90
67273;DHT22;54190;49.770;9.250;2022-09-16T13:21:21;17.10;91.80
67273;DHT22;54190;49.770;9.250;2022-09-16T13:24:12;17.10;92.00
67273;DHT22;54190;49.770;9.250;2022-09-16T13:26:44;17.00;91.80
67273;DHT22;54190;49.770;9.250;2022-09-16T13:32:03;16.80;92.80
67273;DHT22;54190;49.770;9.250;2022-09-16T13:34:29;16.60;93.40
67273;DHT22;54190;49.770;9.250;2022-09-16T13:36:55;16.30;94.00
67273;DHT22;54190;49.770;9.250;2022-09-16T13:39:31;16.00;94.70
67273;DHT22;54190;49.770;9.250;2022-09-16T13:42:15;15.70;95.70
67273;DHT22;54190;49.770;9.250;2022-09-16T13:44:41;15.70;96.10
67273;DHT22;54190;49.770;9.250;2022-09-16T13:50:10;15.50;96.60
67273;DHT22;54190;49.770;9.250;2022-09-16T13:52:37;15.50;96.70
67273;DHT22;54190;49.770;9.250;2022-09-16T13:55:15;15.50;96.60
67273;DHT22;54190;49.770;9.250;2022-09-16T14:03:35;15.30;97.40
67273;DHT22;54190;49.770;9.250;2022-09-16T14:14:47;15.60;97.60
67273;DHT22;54190;49.770;9.250;2022-09-16T14:17:21;15.70;97.50
67273;DHT22;54190;49.770;9.250;2022-09-16T14:19:50;15.70;97.60
67273;DHT22;54190;49.770;9.250;2022-09-16T14:22:19;15.80;97.40
67273;DHT22;54190;49.770;9.250;2022-09-16T14:24:50;15.80;97.70
67273;DHT22;54190;49.770;9.250;2022-09-16T14:27:31;15.80;97.50
67273;DHT22;54190;49.770;9.250;2022-09-16T14:30:25;15.80;97.50
67273;DHT22;54190;49.770;9.250;2022-09-16T14:32:51;15.80;97.60
67273;DHT22;54190;49.770;9.250;2022-09-16T14:35:18;15.90;97.80
67273;DHT22;54190;49.770;9.250;2022-09-16T14:37:45;16.00;98.30
67273;DHT22;54190;49.770;9.250;2022-09-16T14:40:14;16.20;97.40
67273;DHT22;54190;49.770;9.250;2022-09-16T14:42:49;16.30;96.80
67273;DHT22;54190;49.770;9.250;2022-09-16T14:45:16;16.40;96.20
67273;DHT22;54190;49.770;9.250;2022-09-16T14:47:43;16.50;96.60
67273;DHT22;54190;49.770;9.250;2022-09-16T14:50:15;16.80;95.80
67273;DHT22;54190;49.770;9.250;2022-09-16T14:52:56;17.00;96.00
67273;DHT22;54190;49.770;9.250;2022-09-16T14:55:25;16.90;94.20
67273;DHT22;54190;49.770;9.250;2022-09-16T14:57:51;16.80;95.20
67273;DHT22;54190;49.770;9.250;2022-09-16T15:00:18;16.70;94.80
67273;DHT22;54190;49.770;9.250;2022-09-16T15:05:26;16.50;95.20
67273;DHT22;54190;49.770;9.250;2022-09-16T15:08:09;16.40;95.00
67273;DHT22;54190;49.770;9.250;2022-09-16T15:10:39;16.40;95.90
67273;DHT22;54190;49.770;9.250;2022-09-16T15:13:09;16.30;96.10
67273;DHT22;54190;49.770;9.250;2022-09-16T15:15:37;16.30;96.70
67273;DHT22;54190;49.770;9.250;2022-09-16T15:18:33;16.30;95.30
67273;DHT22;54190;49.770;9.250;2022-09-16T15:21:09;16.40;95.40
67273;DHT22;54190;49.770;9.250;2022-09-16T15:23:37;16.60;95.60
67273;DHT22;54190;49.770;9.250;2022-09-16T15:26:25;16.80;95.40
67273;DHT22;54190;49.770;9.250;2022-09-16T15:28:57;17.10;95.50
67273;DHT22;54190;49.770;9.250;2022-09-16T15:31:34;17.20;94.20
67273;DHT22;54190;49.770;9.250;2022-09-16T15:36:54;17.30;93.70
67273;DHT22;54190;49.770;9.250;2022-09-16T15:42:15;17.50;93.10
67273;DHT22;54190;49.770;9.250;2022-09-16T15:44:52;17.60;94.60
67273;DHT22;54190;49.770;9.250;2022-09-16T15:47:21;17.70;94.00
67273;DHT22;54190;49.770;9.250;2022-09-16T15:49:56;17.80;93.60
67273;DHT22;54190;49.770;9.250;2022-09-16T15:52:23;17.90;94.40
67273;DHT22;54190;49.770;9.250;2022-09-16T15:54:56;17.90;93.30
67273;DHT22;54190;49.770;9.250;2022-09-16T15:57:39;17.70;92.40
67273;DHT22;54190;49.770;9.250;2022-09-16T16:00:09;17.40;92.40
67273;DHT22;54190;49.770;9.250;2022-09-16T16:02:44;17.20;93.60
67273;DHT22;54190;49.770;9.250;2022-09-16T16:05:19;17.00;93.60
67273;DHT22;54190;49.770;9.250;2022-09-16T16:07:49;16.90;93.50
67273;DHT22;54190;49.770;9.250;2022-09-16T16:10:22;16.60;93.60
67273;DHT22;54190;49.770;9.250;2022-09-16T16:12:49;16.60;94.10
67273;DHT22;54190;49.770;9.250;2022-09-16T16:15:17;16.40;94.50
67273;DHT22;54190;49.770;9.250;2022-09-16T16:17:45;16.30;94.30
67273;DHT22;54190;49.770;9.250;2022-09-16T16:20:12;16.20;95.10
67273;DHT22;54190;49.770;9.250;2022-09-16T16:22:39;16.20;94.80
67273;DHT22;54190;49.770;9.250;2022-09-16T16:25:06;16.10;95.30
67273;DHT22;54190;49.770;9.250;2022-09-16T16:27:32;16.10;95.50
67273;DHT22;54190;49.770;9.250;2022-09-16T16:29:58;15.90;96.00
67273;DHT22;54190;49.770;9.250;2022-09-16T16:32:24;15.80;96.10
67273;DHT22;54190;49.770;9.250;2022-09-16T16:34:50;15.80;96.50
67273;DHT22;54190;49.770;9.250;2022-09-16T16:37:17;15.80;97.00
67273;DHT22;54190;49.770;9.250;2022-09-16T16:39:44;15.70;97.10
67273;DHT22;54190;49.770;9.250;2022-09-16T16:42:13;15.70;97.10
67273;DHT22;54190;49.770;9.250;2022-09-16T16:44:39;15.70;97.20
67273;DHT22;54190;49.770;9.250;2022-09-16T16:47:06;15.70;97.90
67273;DHT22;54190;49.770;9.250;2022-09-16T16:49:33;15.70;97.50
67273;DHT22;54190;49.770;9.250;2022-09-16T16:51:59;15.60;97.40
67273;DHT22;54190;49.770;9.250;2022-09-16T16:54:25;15.60;97.50
67273;DHT22;54190;49.770;9.250;2022-09-16T16:56:52;15.60;97.30
67273;DHT22;54190;49.770;9.250;2022-09-16T16:59:18;15.50;97.00
67273;DHT22;54190;49.770;9.250;2022-09-16T17:01:46;15.40;97.10
67273;DHT22;54190;49.770;9.250;2022-09-16T17:04:12;15.30;96.90
67273;DHT22;54190;49.770;9.250;2022-09-16T17:06:38;15.20;97.60
67273;DHT22;54190;49.770;9.250;2022-09-16T17:09:06;15.00;97.50
67273;DHT22;54190;49.770;9.250;2022-09-16T17:11:34;14.80;98.40
67273;DHT22;54190;49.770;9.250;2022-09-16T17:14:02;14.70;99.00
67273;DHT22;54190;49.770;9.250;2022-09-16T17:16:29;14.60;99.80
67273;DHT22;54190;49.770;9.250;2022-09-16T17:18:57;14.60;99.90
67273;DHT22;54190;49.770;9.250;2022-09-16T17:21:26;14.60;99.90
67273;DHT22;54190;49.770;9.250;2022-09-16T17:23:53;14.60;99.80
67273;DHT22;54190;49.770;9.250;2022-09-16T17:26:19;14.60;99.10
67273;DHT22;54190;49.770;9.250;2022-09-16T17:28:47;14.50;99.60
67273;DHT22;54190;49.770;9.250;2022-09-16T17:31:22;14.30;99.90
67273;DHT22;54190;49.770;9.250;2022-09-16T17:33:52;14.10;99.90
67273;DHT22;54190;49.770;9.250;2022-09-16T17:36:18;13.90;99.90
67273;DHT22;54190;49.770;9.250;2022-09-16T17:38:46;13.60;99.90
67273;DHT22;54190;49.770;9.250;2022-09-16T17:41:14;13.50;99.90
67273;DHT22;54190;49.770;9.250;2022-09-16T17:43:41;13.40;99.90
67273;DHT22;54190;49.770;9.250;2022-09-16T17:46:13;13.40;99.90
67273;DHT22;54190;49.770;9.250;2022-09-16T17:48:40;13.40;99.90
67273;DHT22;54190;49.770;9.250;2022-09-16T17:51:06;13.40;99.90
67273;DHT22;54190;49.770;9.250;2022-09-16T17:53:32;13.40;99.90
67273;DHT22;54190;49.770;9.250;2022-09-16T17:56:08;13.50;99.90
67273;DHT22;54190;49.770;9.250;2022-09-16T17:58:35;13.50;99.90
67273;DHT22;54190;49.770;9.250;2022-09-16T18:01:09;13.50;99.90
67273;DHT22;54190;49.770;9.250;2022-09-16T18:03:36;13.40;99.90
67273;DHT22;54190;49.770;9.250;2022-09-16T18:06:13;13.40;99.90
67273;DHT22;54190;49.770;9.250;2022-09-16T18:08:40;13.40;99.90
67273;DHT22;54190;49.770;9.250;2022-09-16T18:11:07;13.40;99.90
67273;DHT22;54190;49.770;9.250;2022-09-16T18:13:34;13.40;99.90
67273;DHT22;54190;49.770;9.250;2022-09-16T18:16:09;13.40;99.90
67273;DHT22;54190;49.770;9.250;2022-09-16T18:18:37;13.30;99.90
67273;DHT22;54190;49.770;9.250;2022-09-16T18:21:05;13.30;99.90
67273;DHT22;54190;49.770;9.250;2022-09-16T18:23:36;13.20;99.90
67273;DHT22;54190;49.770;9.250;2022-09-16T18:26:07;13.20;99.90
67273;DHT22;54190;49.770;9.250;2022-09-16T18:28:41;13.10;99.90
67273;DHT22;54190;49.770;9.250;2022-09-16T18:31:09;13.00;99.90
67273;DHT22;54190;49.770;9.250;2022-09-16T18:33:37;13.00;99.90
67273;DHT22;54190;49.770;9.250;2022-09-16T18:36:08;13.00;99.90
67273;DHT22;54190;49.770;9.250;2022-09-16T18:38:38;13.00;99.90
67273;DHT22;54190;49.770;9.250;2022-09-16T18:41:09;12.90;99.90
67273;DHT22;54190;49.770;9.250;2022-09-16T18:43:36;12.90;99.90
67273;DHT22;54190;49.770;9.250;2022-09-16T18:46:25;12.90;99.90
67273;DHT22;54190;49.770;9.250;2022-09-16T18:48:52;12.90;99.90
67273;DHT22;54190;49.770;9.250;2022-09-16T18:51:28;12.90;99.90
67273;DHT22;54190;49.770;9.250;2022-09-16T18:53:56;12.80;99.90
67273;DHT22;54190;49.770;9.250;2022-09-16T18:56:24;12.80;99.90